If you wish to contribute or participate in the discussions about articles you are invited to join SKYbrary as a registered user

 Actions

Adrar/Touat-Cheikh Sidi Mohamed Belkebir Airport

From SKYbrary Wiki

DAUA
Airport
ICAO: DAUA – IATA: AZR
Summary
Name Adrar/Touat-Cheikh Sidi Mohamed Belkebir Airport
Region Africa
Territory Algeria DZ.gif
Location Adrar, Adrar
Serving Adrar
Elevation 280.111 m
919 ft
919 ft280.111 m
Coordinates 27° 50' 21.0012", -0° 11' 7.0008"
Runways
Designator Length Width Surface ROPS
4/22 3000 m9,842.52 ft 45 m147.638 ft ASP /
METAR
Observation DAUA 120100Z 19013KT CAVOK 12/M01 Q1012
Station Adrar
Date/Time 12 December 2017 01:00:00
Wind direction 190°
Wind speed 13 kts
Lowest cloud amount clouds and visibility OK
Temperature 12°C
Dew point
Humidity 40%
QNH 1012 hPa
Weather condition n/a

Adrar/Touat-Cheikh Sidi Mohamed Belkebir Airport

ICAO: DAUA IATA: AZR

Description

Touat-Cheikh Sidi Mohamed Belkebir Airport is a public airport located 6 nm southeast of Adrar, the capital of the Adrar province in Algeria.

Maps

Terrain

Loading map...

Airport Layout

Loading map...


Accidents & Serious Incidents at or in vicinity of DAUA

None on SKYbrary